sensor_id;sensor_type;location;lat;lon;timestamp;temperature;humidity
83650;DHT22;73612;50.948;6.956;2024-03-02T00:00:49;8.50;99.90
83650;DHT22;73612;50.948;6.956;2024-03-02T00:03:15;8.60;99.90
83650;DHT22;73612;50.948;6.956;2024-03-02T00:05:42;8.60;99.90
83650;DHT22;73612;50.948;6.956;2024-03-02T00:08:08;8.50;99.90
83650;DHT22;73612;50.948;6.956;2024-03-02T00:10:38;8.50;99.90
83650;DHT22;73612;50.948;6.956;2024-03-02T00:13:07;8.50;99.90
83650;DHT22;73612;50.948;6.956;2024-03-02T00:15:51;8.50;99.90
83650;DHT22;73612;50.948;6.956;2024-03-02T00:18:18;8.40;99.90
83650;DHT22;73612;50.948;6.956;2024-03-02T00:20:45;8.50;99.90
83650;DHT22;73612;50.948;6.956;2024-03-02T00:23:14;8.50;99.90
83650;DHT22;73612;50.948;6.956;2024-03-02T00:25:40;8.50;99.90
83650;DHT22;73612;50.948;6.956;2024-03-02T00:28:16;8.50;99.90
83650;DHT22;73612;50.948;6.956;2024-03-02T00:30:59;8.60;99.90
83650;DHT22;73612;50.948;6.956;2024-03-02T00:33:26;8.70;99.90
83650;DHT22;73612;50.948;6.956;2024-03-02T00:35:53;8.70;99.90
83650;DHT22;73612;50.948;6.956;2024-03-02T00:38:19;8.70;99.90
83650;DHT22;73612;50.948;6.956;2024-03-02T00:40:46;8.70;99.90
83650;DHT22;73612;50.948;6.956;2024-03-02T00:43:42;8.70;99.90
83650;DHT22;73612;50.948;6.956;2024-03-02T00:46:11;8.70;99.90
83650;DHT22;73612;50.948;6.956;2024-03-02T00:48:38;8.80;99.90
83650;DHT22;73612;50.948;6.956;2024-03-02T00:51:04;8.80;99.90
83650;DHT22;73612;50.948;6.956;2024-03-02T00:53:31;8.70;99.90
83650;DHT22;73612;50.948;6.956;2024-03-02T00:55:57;8.80;99.90
83650;DHT22;73612;50.948;6.956;2024-03-02T00:58:24;8.80;99.90
83650;DHT22;73612;50.948;6.956;2024-03-02T01:00:50;8.70;99.90
83650;DHT22;73612;50.948;6.956;2024-03-02T01:03:17;8.70;99.90
83650;DHT22;73612;50.948;6.956;2024-03-02T01:05:43;8.70;99.90
83650;DHT22;73612;50.948;6.956;2024-03-02T01:08:11;8.70;99.90
83650;DHT22;73612;50.948;6.956;2024-03-02T01:10:37;8.60;99.90
83650;DHT22;73612;50.948;6.956;2024-03-02T01:13:04;8.60;99.90
83650;DHT22;73612;50.948;6.956;2024-03-02T01:15:31;8.60;99.90
83650;DHT22;73612;50.948;6.956;2024-03-02T01:17:57;8.60;99.90
83650;DHT22;73612;50.948;6.956;2024-03-02T01:20:24;8.50;99.90
83650;DHT22;73612;50.948;6.956;2024-03-02T01:22:50;8.40;99.90
83650;DHT22;73612;50.948;6.956;2024-03-02T01:25:17;8.40;99.90
83650;DHT22;73612;50.948;6.956;2024-03-02T01:27:44;8.40;99.90
83650;DHT22;73612;50.948;6.956;2024-03-02T01:30:11;8.50;99.90
83650;DHT22;73612;50.948;6.956;2024-03-02T01:32:38;8.40;99.90
83650;DHT22;73612;50.948;6.956;2024-03-02T01:35:05;8.40;99.90
83650;DHT22;73612;50.948;6.956;2024-03-02T01:37:32;8.40;99.90
83650;DHT22;73612;50.948;6.956;2024-03-02T01:39:58;8.50;99.90
83650;DHT22;73612;50.948;6.956;2024-03-02T01:42:25;8.50;99.90
83650;DHT22;73612;50.948;6.956;2024-03-02T01:44:51;8.50;99.90
83650;DHT22;73612;50.948;6.956;2024-03-02T01:47:18;8.60;99.90
83650;DHT22;73612;50.948;6.956;2024-03-02T01:49:45;8.60;99.90
83650;DHT22;73612;50.948;6.956;2024-03-02T01:52:11;8.60;99.90
83650;DHT22;73612;50.948;6.956;2024-03-02T01:54:38;8.60;99.90
83650;DHT22;73612;50.948;6.956;2024-03-02T01:57:05;8.60;99.90
83650;DHT22;73612;50.948;6.956;2024-03-02T01:59:31;8.70;99.90
83650;DHT22;73612;50.948;6.956;2024-03-02T02:01:58;8.70;99.90
83650;DHT22;73612;50.948;6.956;2024-03-02T02:04:24;8.70;99.90
83650;DHT22;73612;50.948;6.956;2024-03-02T02:06:51;8.70;99.90
83650;DHT22;73612;50.948;6.956;2024-03-02T02:09:18;8.70;99.90
83650;DHT22;73612;50.948;6.956;2024-03-02T02:11:44;8.70;99.90
83650;DHT22;73612;50.948;6.956;2024-03-02T02:14:11;8.70;99.90
83650;DHT22;73612;50.948;6.956;2024-03-02T02:16:37;8.70;99.90
83650;DHT22;73612;50.948;6.956;2024-03-02T02:19:04;8.70;99.90
83650;DHT22;73612;50.948;6.956;2024-03-02T02:21:30;8.70;99.90
83650;DHT22;73612;50.948;6.956;2024-03-02T02:23:57;8.70;99.90
83650;DHT22;73612;50.948;6.956;2024-03-02T02:26:24;8.60;99.90
83650;DHT22;73612;50.948;6.956;2024-03-02T02:28:50;8.60;99.90
83650;DHT22;73612;50.948;6.956;2024-03-02T02:31:17;8.70;99.90
83650;DHT22;73612;50.948;6.956;2024-03-02T02:33:43;8.70;99.90
83650;DHT22;73612;50.948;6.956;2024-03-02T02:36:10;8.70;99.90
83650;DHT22;73612;50.948;6.956;2024-03-02T02:38:39;8.70;99.90
83650;DHT22;73612;50.948;6.956;2024-03-02T02:41:11;8.70;99.90
83650;DHT22;73612;50.948;6.956;2024-03-02T02:43:50;8.70;99.90
83650;DHT22;73612;50.948;6.956;2024-03-02T02:46:33;8.80;99.90
83650;DHT22;73612;50.948;6.956;2024-03-02T02:49:17;8.80;99.90
83650;DHT22;73612;50.948;6.956;2024-03-02T02:57:17;8.70;99.90
83650;DHT22;73612;50.948;6.956;2024-03-02T02:59:46;8.70;99.90
83650;DHT22;73612;50.948;6.956;2024-03-02T03:02:20;8.70;99.90
83650;DHT22;73612;50.948;6.956;2024-03-02T03:04:53;8.70;99.90
83650;DHT22;73612;50.948;6.956;2024-03-02T03:07:24;8.70;99.90
83650;DHT22;73612;50.948;6.956;2024-03-02T03:09:51;8.70;99.90
83650;DHT22;73612;50.948;6.956;2024-03-02T03:12:44;8.70;99.90
83650;DHT22;73612;50.948;6.956;2024-03-02T03:17:49;8.70;99.90
83650;DHT22;73612;50.948;6.956;2024-03-02T03:20:16;8.70;99.90
83650;DHT22;73612;50.948;6.956;2024-03-02T03:22:50;8.70;99.90
83650;DHT22;73612;50.948;6.956;2024-03-02T03:25:24;8.70;99.90
83650;DHT22;73612;50.948;6.956;2024-03-02T03:27:52;8.60;99.90
83650;DHT22;73612;50.948;6.956;2024-03-02T03:30:19;8.60;99.90
83650;DHT22;73612;50.948;6.956;2024-03-02T03:32:57;8.60;99.90
83650;DHT22;73612;50.948;6.956;2024-03-02T03:35:33;8.60;99.90
83650;DHT22;73612;50.948;6.956;2024-03-02T03:38:01;8.60;99.90
83650;DHT22;73612;50.948;6.956;2024-03-02T03:40:31;8.50;99.90
83650;DHT22;73612;50.948;6.956;2024-03-02T03:43:09;8.50;99.90
83650;DHT22;73612;50.948;6.956;2024-03-02T03:45:36;8.50;99.90
83650;DHT22;73612;50.948;6.956;2024-03-02T03:48:16;8.50;99.90
83650;DHT22;73612;50.948;6.956;2024-03-02T03:50:47;8.60;99.90
83650;DHT22;73612;50.948;6.956;2024-03-02T03:53:17;8.50;99.90
83650;DHT22;73612;50.948;6.956;2024-03-02T03:55:54;8.40;99.90
83650;DHT22;73612;50.948;6.956;2024-03-02T03:58:38;8.40;99.90
83650;DHT22;73612;50.948;6.956;2024-03-02T04:01:09;8.40;99.90
83650;DHT22;73612;50.948;6.956;2024-03-02T04:03:42;8.30;99.90
83650;DHT22;73612;50.948;6.956;2024-03-02T04:06:12;8.20;99.90
83650;DHT22;73612;50.948;6.956;2024-03-02T04:08:43;8.10;99.90
83650;DHT22;73612;50.948;6.956;2024-03-02T04:11:18;8.10;99.90
83650;DHT22;73612;50.948;6.956;2024-03-02T04:16:45;8.00;99.90
83650;DHT22;73612;50.948;6.956;2024-03-02T04:22:05;7.90;99.90
83650;DHT22;73612;50.948;6.956;2024-03-02T04:24:39;7.90;99.90
83650;DHT22;73612;50.948;6.956;2024-03-02T04:27:13;7.90;99.90
83650;DHT22;73612;50.948;6.956;2024-03-02T04:29:48;8.00;99.90
83650;DHT22;73612;50.948;6.956;2024-03-02T04:32:18;8.00;99.90
83650;DHT22;73612;50.948;6.956;2024-03-02T04:35:05;8.10;99.90
83650;DHT22;73612;50.948;6.956;2024-03-02T04:37:37;8.10;99.90
83650;DHT22;73612;50.948;6.956;2024-03-02T04:40:11;8.20;99.90
83650;DHT22;73612;50.948;6.956;2024-03-02T04:42:37;8.10;99.90
83650;DHT22;73612;50.948;6.956;2024-03-02T04:45:04;8.10;99.90
83650;DHT22;73612;50.948;6.956;2024-03-02T04:47:31;8.00;99.90
83650;DHT22;73612;50.948;6.956;2024-03-02T04:49:58;7.90;99.90
83650;DHT22;73612;50.948;6.956;2024-03-02T04:52:25;7.90;99.90
83650;DHT22;73612;50.948;6.956;2024-03-02T04:54:51;7.80;99.90
83650;DHT22;73612;50.948;6.956;2024-03-02T04:57:24;7.80;99.90
83650;DHT22;73612;50.948;6.956;2024-03-02T04:59:50;7.80;99.90
83650;DHT22;73612;50.948;6.956;2024-03-02T05:02:17;7.80;99.90
83650;DHT22;73612;50.948;6.956;2024-03-02T05:04:44;7.70;99.90
83650;DHT22;73612;50.948;6.956;2024-03-02T05:07:11;7.60;99.90
83650;DHT22;73612;50.948;6.956;2024-03-02T05:09:38;7.60;99.90
83650;DHT22;73612;50.948;6.956;2024-03-02T05:12:05;7.60;99.90
83650;DHT22;73612;50.948;6.956;2024-03-02T05:14:50;7.50;99.90
83650;DHT22;73612;50.948;6.956;2024-03-02T05:17:17;7.40;99.90
83650;DHT22;73612;50.948;6.956;2024-03-02T05:19:43;7.30;99.90
83650;DHT22;73612;50.948;6.956;2024-03-02T05:22:10;7.30;99.90
83650;DHT22;73612;50.948;6.956;2024-03-02T05:24:37;7.40;99.90
83650;DHT22;73612;50.948;6.956;2024-03-02T05:27:03;7.40;99.90
83650;DHT22;73612;50.948;6.956;2024-03-02T05:29:30;7.40;99.90
83650;DHT22;73612;50.948;6.956;2024-03-02T05:31:57;7.40;99.90
83650;DHT22;73612;50.948;6.956;2024-03-02T05:34:23;7.30;99.90
83650;DHT22;73612;50.948;6.956;2024-03-02T05:36:50;7.30;99.90
83650;DHT22;73612;50.948;6.956;2024-03-02T05:39:17;7.30;99.90
83650;DHT22;73612;50.948;6.956;2024-03-02T05:41:43;7.30;99.90
83650;DHT22;73612;50.948;6.956;2024-03-02T05:44:10;7.30;99.90
83650;DHT22;73612;50.948;6.956;2024-03-02T05:46:37;7.30;99.90
83650;DHT22;73612;50.948;6.956;2024-03-02T05:49:04;7.40;99.90
83650;DHT22;73612;50.948;6.956;2024-03-02T05:51:31;7.30;99.90
83650;DHT22;73612;50.948;6.956;2024-03-02T05:53:57;7.30;99.90
83650;DHT22;73612;50.948;6.956;2024-03-02T05:56:24;7.40;99.90
83650;DHT22;73612;50.948;6.956;2024-03-02T05:58:51;7.40;99.90
83650;DHT22;73612;50.948;6.956;2024-03-02T06:01:23;7.50;99.90
83650;DHT22;73612;50.948;6.956;2024-03-02T06:03:50;7.60;99.90
83650;DHT22;73612;50.948;6.956;2024-03-02T06:06:18;7.70;99.90
83650;DHT22;73612;50.948;6.956;2024-03-02T06:08:46;7.70;99.90
83650;DHT22;73612;50.948;6.956;2024-03-02T06:11:13;7.60;99.90
83650;DHT22;73612;50.948;6.956;2024-03-02T06:13:39;7.50;99.90
83650;DHT22;73612;50.948;6.956;2024-03-02T06:16:06;7.50;99.90
83650;DHT22;73612;50.948;6.956;2024-03-02T06:18:33;7.50;99.90
83650;DHT22;73612;50.948;6.956;2024-03-02T06:21:00;7.50;99.90
83650;DHT22;73612;50.948;6.956;2024-03-02T06:23:27;7.50;99.90
83650;DHT22;73612;50.948;6.956;2024-03-02T06:25:54;7.40;99.90
83650;DHT22;73612;50.948;6.956;2024-03-02T06:28:21;7.40;99.90
83650;DHT22;73612;50.948;6.956;2024-03-02T06:30:48;7.50;99.90
83650;DHT22;73612;50.948;6.956;2024-03-02T06:33:14;7.50;99.90
83650;DHT22;73612;50.948;6.956;2024-03-02T06:35:41;7.40;99.90
83650;DHT22;73612;50.948;6.956;2024-03-02T06:38:08;7.40;99.90
83650;DHT22;73612;50.948;6.956;2024-03-02T06:40:36;7.50;99.90
83650;DHT22;73612;50.948;6.956;2024-03-02T06:43:03;7.50;99.90
83650;DHT22;73612;50.948;6.956;2024-03-02T06:45:30;7.50;99.90
83650;DHT22;73612;50.948;6.956;2024-03-02T06:47:57;7.60;99.90
83650;DHT22;73612;50.948;6.956;2024-03-02T06:50:23;7.50;99.90
83650;DHT22;73612;50.948;6.956;2024-03-02T06:52:50;7.50;99.90
83650;DHT22;73612;50.948;6.956;2024-03-02T06:55:17;7.60;99.90
83650;DHT22;73612;50.948;6.956;2024-03-02T06:57:44;7.50;99.90
83650;DHT22;73612;50.948;6.956;2024-03-02T07:00:11;7.40;99.90
83650;DHT22;73612;50.948;6.956;2024-03-02T07:02:39;7.50;99.90
83650;DHT22;73612;50.948;6.956;2024-03-02T07:05:06;7.50;99.90
83650;DHT22;73612;50.948;6.956;2024-03-02T07:07:32;7.60;99.90
83650;DHT22;73612;50.948;6.956;2024-03-02T07:09:59;7.70;99.90
83650;DHT22;73612;50.948;6.956;2024-03-02T07:12:26;7.70;99.90
83650;DHT22;73612;50.948;6.956;2024-03-02T07:14:53;7.80;99.90
83650;DHT22;73612;50.948;6.956;2024-03-02T07:17:38;7.90;99.90
83650;DHT22;73612;50.948;6.956;2024-03-02T07:20:06;8.00;99.90
83650;DHT22;73612;50.948;6.956;2024-03-02T07:22:33;8.10;99.90
83650;DHT22;73612;50.948;6.956;2024-03-02T07:25:00;8.10;99.90
83650;DHT22;73612;50.948;6.956;2024-03-02T07:27:27;8.20;99.90
83650;DHT22;73612;50.948;6.956;2024-03-02T07:29:53;8.20;99.90
83650;DHT22;73612;50.948;6.956;2024-03-02T07:32:20;8.30;99.90
83650;DHT22;73612;50.948;6.956;2024-03-02T07:34:47;8.30;99.90
83650;DHT22;73612;50.948;6.956;2024-03-02T07:37:14;8.40;99.90
83650;DHT22;73612;50.948;6.956;2024-03-02T07:39:41;8.40;99.90
83650;DHT22;73612;50.948;6.956;2024-03-02T07:42:07;8.40;99.90
83650;DHT22;73612;50.948;6.956;2024-03-02T07:44:35;8.50;99.90
83650;DHT22;73612;50.948;6.956;2024-03-02T07:47:02;8.60;99.90
83650;DHT22;73612;50.948;6.956;2024-03-02T07:49:29;8.60;99.90
83650;DHT22;73612;50.948;6.956;2024-03-02T07:51:56;8.60;99.90
83650;DHT22;73612;50.948;6.956;2024-03-02T07:54:23;8.60;99.90
83650;DHT22;73612;50.948;6.956;2024-03-02T07:56:51;8.60;99.90
83650;DHT22;73612;50.948;6.956;2024-03-02T07:59:18;8.60;99.90
83650;DHT22;73612;50.948;6.956;2024-03-02T08:01:44;8.60;99.90
83650;DHT22;73612;50.948;6.956;2024-03-02T08:04:12;8.60;99.90
83650;DHT22;73612;50.948;6.956;2024-03-02T08:06:38;8.70;99.90
83650;DHT22;73612;50.948;6.956;2024-03-02T08:09:07;8.70;99.90
83650;DHT22;73612;50.948;6.956;2024-03-02T08:11:36;8.80;99.90
83650;DHT22;73612;50.948;6.956;2024-03-02T08:14:03;8.90;99.90
83650;DHT22;73612;50.948;6.956;2024-03-02T08:16:30;9.00;99.90
83650;DHT22;73612;50.948;6.956;2024-03-02T08:18:57;9.00;99.90
83650;DHT22;73612;50.948;6.956;2024-03-02T08:21:25;9.20;99.90
83650;DHT22;73612;50.948;6.956;2024-03-02T08:23:52;9.30;99.90
83650;DHT22;73612;50.948;6.956;2024-03-02T08:26:20;9.50;99.90
83650;DHT22;73612;50.948;6.956;2024-03-02T08:28:48;9.70;99.90
83650;DHT22;73612;50.948;6.956;2024-03-02T08:31:14;9.80;99.90
83650;DHT22;73612;50.948;6.956;2024-03-02T08:33:42;9.90;99.90
83650;DHT22;73612;50.948;6.956;2024-03-02T08:36:08;10.10;99.90
83650;DHT22;73612;50.948;6.956;2024-03-02T08:38:35;10.30;99.90
83650;DHT22;73612;50.948;6.956;2024-03-02T08:41:02;10.50;99.90
83650;DHT22;73612;50.948;6.956;2024-03-02T08:43:29;10.40;99.90
83650;DHT22;73612;50.948;6.956;2024-03-02T08:45:55;10.50;99.90
83650;DHT22;73612;50.948;6.956;2024-03-02T08:48:22;10.60;99.90
83650;DHT22;73612;50.948;6.956;2024-03-02T08:50:49;10.50;99.90
83650;DHT22;73612;50.948;6.956;2024-03-02T08:53:15;10.60;99.90
83650;DHT22;73612;50.948;6.956;2024-03-02T08:55:42;10.50;99.90
83650;DHT22;73612;50.948;6.956;2024-03-02T08:58:09;10.50;99.90
83650;DHT22;73612;50.948;6.956;2024-03-02T09:00:36;10.60;99.90
83650;DHT22;73612;50.948;6.956;2024-03-02T09:03:02;10.70;99.90
83650;DHT22;73612;50.948;6.956;2024-03-02T09:05:29;10.60;99.90
83650;DHT22;73612;50.948;6.956;2024-03-02T09:07:56;10.70;99.90
83650;DHT22;73612;50.948;6.956;2024-03-02T09:10:23;10.80;99.90
83650;DHT22;73612;50.948;6.956;2024-03-02T09:12:49;10.90;99.90
83650;DHT22;73612;50.948;6.956;2024-03-02T09:15:16;11.00;99.40
83650;DHT22;73612;50.948;6.956;2024-03-02T09:17:43;11.00;99.80
83650;DHT22;73612;50.948;6.956;2024-03-02T09:20:10;11.10;99.80
83650;DHT22;73612;50.948;6.956;2024-03-02T09:22:37;11.20;99.50
83650;DHT22;73612;50.948;6.956;2024-03-02T09:25:03;11.30;98.90
83650;DHT22;73612;50.948;6.956;2024-03-02T09:27:30;11.40;98.90
83650;DHT22;73612;50.948;6.956;2024-03-02T09:29:57;11.50;98.70
83650;DHT22;73612;50.948;6.956;2024-03-02T09:32:23;11.50;99.40
83650;DHT22;73612;50.948;6.956;2024-03-02T09:34:50;11.60;98.20
83650;DHT22;73612;50.948;6.956;2024-03-02T09:37:17;11.60;97.60
83650;DHT22;73612;50.948;6.956;2024-03-02T09:39:43;11.90;97.80
83650;DHT22;73612;50.948;6.956;2024-03-02T09:42:10;11.90;97.20
83650;DHT22;73612;50.948;6.956;2024-03-02T09:44:36;12.00;97.80
83650;DHT22;73612;50.948;6.956;2024-03-02T09:47:03;12.10;97.20
83650;DHT22;73612;50.948;6.956;2024-03-02T09:49:30;12.10;97.00
83650;DHT22;73612;50.948;6.956;2024-03-02T09:51:56;11.80;96.30
83650;DHT22;73612;50.948;6.956;2024-03-02T09:54:23;11.80;97.50
83650;DHT22;73612;50.948;6.956;2024-03-02T09:56:50;12.00;96.80
83650;DHT22;73612;50.948;6.956;2024-03-02T09:59:16;12.00;96.60
83650;DHT22;73612;50.948;6.956;2024-03-02T10:04:21;12.00;96.40
83650;DHT22;73612;50.948;6.956;2024-03-02T10:06:48;11.90;96.20
83650;DHT22;73612;50.948;6.956;2024-03-02T10:09:21;12.00;96.30
83650;DHT22;73612;50.948;6.956;2024-03-02T10:11:41;12.00;95.60
83650;DHT22;73612;50.948;6.956;2024-03-02T10:14:11;11.90;96.50
83650;DHT22;73612;50.948;6.956;2024-03-02T10:16:38;12.00;96.10
83650;DHT22;73612;50.948;6.956;2024-03-02T10:21:47;12.20;95.80
83650;DHT22;73612;50.948;6.956;2024-03-02T10:24:13;12.20;96.00
83650;DHT22;73612;50.948;6.956;2024-03-02T10:26:40;12.20;96.30
83650;DHT22;73612;50.948;6.956;2024-03-02T10:29:07;12.10;95.60
83650;DHT22;73612;50.948;6.956;2024-03-02T10:31:33;12.00;95.50
83650;DHT22;73612;50.948;6.956;2024-03-02T10:34:00;12.10;96.20
83650;DHT22;73612;50.948;6.956;2024-03-02T10:36:26;12.20;95.90
83650;DHT22;73612;50.948;6.956;2024-03-02T10:38:53;12.50;95.10
83650;DHT22;73612;50.948;6.956;2024-03-02T10:41:23;12.80;94.50
83650;DHT22;73612;50.948;6.956;2024-03-02T10:43:51;13.00;93.70
83650;DHT22;73612;50.948;6.956;2024-03-02T10:46:19;12.80;93.30
83650;DHT22;73612;50.948;6.956;2024-03-02T10:48:44;12.90;94.00
83650;DHT22;73612;50.948;6.956;2024-03-02T10:51:10;12.70;93.10
83650;DHT22;73612;50.948;6.956;2024-03-02T10:53:37;12.70;94.20
83650;DHT22;73612;50.948;6.956;2024-03-02T10:56:04;13.00;94.70
83650;DHT22;73612;50.948;6.956;2024-03-02T10:58:32;13.50;92.20
83650;DHT22;73612;50.948;6.956;2024-03-02T11:00:58;14.50;90.50
83650;DHT22;73612;50.948;6.956;2024-03-02T11:03:24;15.50;85.80
83650;DHT22;73612;50.948;6.956;2024-03-02T11:05:51;16.10;77.30
83650;DHT22;73612;50.948;6.956;2024-03-02T11:08:18;16.70;73.90
83650;DHT22;73612;50.948;6.956;2024-03-02T11:10:48;17.10;69.90
83650;DHT22;73612;50.948;6.956;2024-03-02T11:13:14;17.50;63.30
83650;DHT22;73612;50.948;6.956;2024-03-02T11:15:41;17.60;57.70
83650;DHT22;73612;50.948;6.956;2024-03-02T11:18:07;17.50;57.90
83650;DHT22;73612;50.948;6.956;2024-03-02T11:20:36;17.80;59.60
83650;DHT22;73612;50.948;6.956;2024-03-02T11:23:05;18.20;56.30
83650;DHT22;73612;50.948;6.956;2024-03-02T11:25:32;18.20;55.40
83650;DHT22;73612;50.948;6.956;2024-03-02T11:27:59;18.60;55.60
83650;DHT22;73612;50.948;6.956;2024-03-02T11:30:48;18.50;53.70
83650;DHT22;73612;50.948;6.956;2024-03-02T11:33:14;18.50;52.00
83650;DHT22;73612;50.948;6.956;2024-03-02T11:35:42;18.00;57.90
83650;DHT22;73612;50.948;6.956;2024-03-02T11:38:10;17.80;54.90
83650;DHT22;73612;50.948;6.956;2024-03-02T11:40:36;17.90;56.40
83650;DHT22;73612;50.948;6.956;2024-03-02T11:43:03;18.50;54.60
83650;DHT22;73612;50.948;6.956;2024-03-02T11:45:30;18.80;52.90
83650;DHT22;73612;50.948;6.956;2024-03-02T11:47:57;19.00;52.40
83650;DHT22;73612;50.948;6.956;2024-03-02T11:50:30;18.80;50.80
83650;DHT22;73612;50.948;6.956;2024-03-02T11:52:57;19.50;48.80
83650;DHT22;73612;50.948;6.956;2024-03-02T11:55:34;19.80;48.10
83650;DHT22;73612;50.948;6.956;2024-03-02T11:58:01;18.20;50.40
83650;DHT22;73612;50.948;6.956;2024-03-02T12:00:29;17.80;52.80
83650;DHT22;73612;50.948;6.956;2024-03-02T12:03:01;18.00;59.20
83650;DHT22;73612;50.948;6.956;2024-03-02T12:05:28;18.40;54.20
83650;DHT22;73612;50.948;6.956;2024-03-02T12:07:57;17.80;54.90
83650;DHT22;73612;50.948;6.956;2024-03-02T12:10:24;16.90;65.80
83650;DHT22;73612;50.948;6.956;2024-03-02T12:12:57;16.00;70.00
83650;DHT22;73612;50.948;6.956;2024-03-02T12:15:25;15.10;81.00
83650;DHT22;73612;50.948;6.956;2024-03-02T12:17:52;15.20;86.50
83650;DHT22;73612;50.948;6.956;2024-03-02T12:20:16;15.20;81.90
83650;DHT22;73612;50.948;6.956;2024-03-02T12:22:43;15.60;83.00
83650;DHT22;73612;50.948;6.956;2024-03-02T12:25:10;16.50;77.00
83650;DHT22;73612;50.948;6.956;2024-03-02T12:27:36;17.00;73.70
83650;DHT22;73612;50.948;6.956;2024-03-02T12:30:03;17.60;64.10
83650;DHT22;73612;50.948;6.956;2024-03-02T12:32:30;18.30;58.50
83650;DHT22;73612;50.948;6.956;2024-03-02T12:34:57;18.40;55.70
83650;DHT22;73612;50.948;6.956;2024-03-02T12:37:23;18.40;61.10
83650;DHT22;73612;50.948;6.956;2024-03-02T12:39:50;18.20;55.10
83650;DHT22;73612;50.948;6.956;2024-03-02T12:42:17;18.10;55.20
83650;DHT22;73612;50.948;6.956;2024-03-02T12:44:43;18.00;65.60
83650;DHT22;73612;50.948;6.956;2024-03-02T12:47:10;18.40;58.30
83650;DHT22;73612;50.948;6.956;2024-03-02T12:49:37;18.90;52.70
83650;DHT22;73612;50.948;6.956;2024-03-02T12:52:04;18.70;52.40
83650;DHT22;73612;50.948;6.956;2024-03-02T12:54:30;18.90;58.20
83650;DHT22;73612;50.948;6.956;2024-03-02T12:56:57;18.50;52.90
83650;DHT22;73612;50.948;6.956;2024-03-02T12:59:24;18.40;53.40
83650;DHT22;73612;50.948;6.956;2024-03-02T13:01:53;17.90;57.00
83650;DHT22;73612;50.948;6.956;2024-03-02T13:04:23;18.60;59.70
83650;DHT22;73612;50.948;6.956;2024-03-02T13:06:49;20.20;52.40
83650;DHT22;73612;50.948;6.956;2024-03-02T13:09:16;21.10;49.80
83650;DHT22;73612;50.948;6.956;2024-03-02T13:11:42;21.10;46.50
83650;DHT22;73612;50.948;6.956;2024-03-02T13:14:10;20.90;44.70
83650;DHT22;73612;50.948;6.956;2024-03-02T13:16:40;20.00;47.10
83650;DHT22;73612;50.948;6.956;2024-03-02T13:19:11;20.30;48.00
83650;DHT22;73612;50.948;6.956;2024-03-02T13:21:38;20.60;47.00
83650;DHT22;73612;50.948;6.956;2024-03-02T13:24:05;21.10;47.40
83650;DHT22;73612;50.948;6.956;2024-03-02T13:26:33;20.80;47.10
83650;DHT22;73612;50.948;6.956;2024-03-02T13:28:59;19.90;47.50
83650;DHT22;73612;50.948;6.956;2024-03-02T13:31:26;20.10;46.80
83650;DHT22;73612;50.948;6.956;2024-03-02T13:33:52;18.50;52.20
83650;DHT22;73612;50.948;6.956;2024-03-02T13:36:19;17.40;57.60
83650;DHT22;73612;50.948;6.956;2024-03-02T13:38:46;17.70;62.70
83650;DHT22;73612;50.948;6.956;2024-03-02T13:41:12;18.60;58.00
83650;DHT22;73612;50.948;6.956;2024-03-02T13:43:39;19.50;54.00
83650;DHT22;73612;50.948;6.956;2024-03-02T13:46:05;19.60;53.90
83650;DHT22;73612;50.948;6.956;2024-03-02T13:48:32;20.50;48.30
83650;DHT22;73612;50.948;6.956;2024-03-02T13:50:59;21.10;44.00
83650;DHT22;73612;50.948;6.956;2024-03-02T13:53:25;21.00;44.20
83650;DHT22;73612;50.948;6.956;2024-03-02T13:55:52;20.40;43.80
83650;DHT22;73612;50.948;6.956;2024-03-02T13:58:19;19.50;48.50
83650;DHT22;73612;50.948;6.956;2024-03-02T14:00:45;19.90;46.80
83650;DHT22;73612;50.948;6.956;2024-03-02T14:03:12;20.40;45.70
83650;DHT22;73612;50.948;6.956;2024-03-02T14:05:38;19.50;45.40
83650;DHT22;73612;50.948;6.956;2024-03-02T14:08:05;18.90;49.90
83650;DHT22;73612;50.948;6.956;2024-03-02T14:10:32;18.50;55.50
83650;DHT22;73612;50.948;6.956;2024-03-02T14:12:58;18.10;53.10
83650;DHT22;73612;50.948;6.956;2024-03-02T14:15:25;17.30;58.30
83650;DHT22;73612;50.948;6.956;2024-03-02T14:17:52;16.50;62.70
83650;DHT22;73612;50.948;6.956;2024-03-02T14:20:19;16.30;64.50
83650;DHT22;73612;50.948;6.956;2024-03-02T14:22:49;16.00;68.90
83650;DHT22;73612;50.948;6.956;2024-03-02T14:25:16;15.90;74.80
83650;DHT22;73612;50.948;6.956;2024-03-02T14:27:43;16.10;76.50
83650;DHT22;73612;50.948;6.956;2024-03-02T14:30:10;16.20;72.20
83650;DHT22;73612;50.948;6.956;2024-03-02T14:32:37;16.40;74.80
83650;DHT22;73612;50.948;6.956;2024-03-02T14:35:03;16.10;72.20
83650;DHT22;73612;50.948;6.956;2024-03-02T14:37:30;16.20;76.90
83650;DHT22;73612;50.948;6.956;2024-03-02T14:39:57;15.70;76.80
83650;DHT22;73612;50.948;6.956;2024-03-02T14:42:23;15.70;81.60
83650;DHT22;73612;50.948;6.956;2024-03-02T14:47:55;15.30;83.90
83650;DHT22;73612;50.948;6.956;2024-03-02T14:50:30;15.20;81.50
83650;DHT22;73612;50.948;6.956;2024-03-02T14:52:58;15.10;83.00
83650;DHT22;73612;50.948;6.956;2024-03-02T14:55:32;15.00;82.90
83650;DHT22;73612;50.948;6.956;2024-03-02T14:58:11;15.00;85.20
83650;DHT22;73612;50.948;6.956;2024-03-02T15:00:42;15.10;83.60
83650;DHT22;73612;50.948;6.956;2024-03-02T15:03:18;15.10;82.10
83650;DHT22;73612;50.948;6.956;2024-03-02T15:05:53;15.10;81.80
83650;DHT22;73612;50.948;6.956;2024-03-02T15:08:32;15.00;87.60
83650;DHT22;73612;50.948;6.956;2024-03-02T15:11:09;14.90;84.30
83650;DHT22;73612;50.948;6.956;2024-03-02T15:13:41;14.90;88.60
83650;DHT22;73612;50.948;6.956;2024-03-02T15:18:48;15.00;87.00
83650;DHT22;73612;50.948;6.956;2024-03-02T15:24:23;15.10;81.00
83650;DHT22;73612;50.948;6.956;2024-03-02T15:26:57;15.10;86.70
83650;DHT22;73612;50.948;6.956;2024-03-02T15:29:24;15.10;82.10
83650;DHT22;73612;50.948;6.956;2024-03-02T15:31:51;14.90;81.20
83650;DHT22;73612;50.948;6.956;2024-03-02T15:34:17;14.80;81.80
83650;DHT22;73612;50.948;6.956;2024-03-02T15:36:44;14.80;82.60
83650;DHT22;73612;50.948;6.956;2024-03-02T15:39:11;14.70;82.10
83650;DHT22;73612;50.948;6.956;2024-03-02T15:41:38;14.60;84.30
83650;DHT22;73612;50.948;6.956;2024-03-02T15:44:05;14.60;87.20
83650;DHT22;73612;50.948;6.956;2024-03-02T15:46:31;14.50;83.50
83650;DHT22;73612;50.948;6.956;2024-03-02T15:48:58;14.50;83.90
83650;DHT22;73612;50.948;6.956;2024-03-02T15:51:25;14.50;89.50
83650;DHT22;73612;50.948;6.956;2024-03-02T15:53:52;14.50;84.30
83650;DHT22;73612;50.948;6.956;2024-03-02T15:56:18;14.50;82.60
83650;DHT22;73612;50.948;6.956;2024-03-02T15:58:45;14.50;89.30
83650;DHT22;73612;50.948;6.956;2024-03-02T16:01:12;14.50;85.00
83650;DHT22;73612;50.948;6.956;2024-03-02T16:03:38;14.40;84.30
83650;DHT22;73612;50.948;6.956;2024-03-02T16:06:05;14.40;83.80
83650;DHT22;73612;50.948;6.956;2024-03-02T16:08:32;14.40;84.90
83650;DHT22;73612;50.948;6.956;2024-03-02T16:10:59;14.40;84.60
83650;DHT22;73612;50.948;6.956;2024-03-02T16:13:25;14.40;84.80